createdAt,value
2018-11-20T00:03:13.400Z,15.43
2018-11-20T00:12:00.430Z,14.97
2018-11-20T00:20:40.171Z,14.87
2018-11-20T00:29:11.003Z,15.83
2018-11-20T00:37:46.716Z,15.30
2018-11-20T00:46:26.076Z,14.57
2018-11-20T00:55:05.440Z,14.90
2018-11-20T01:03:47.797Z,14.90
2018-11-20T01:12:28.582Z,14.00
2018-11-20T01:21:08.129Z,14.57
2018-11-20T01:29:52.178Z,14.83
2018-11-20T01:38:35.434Z,14.47
2018-11-20T01:47:13.384Z,14.57
2018-11-20T01:56:02.961Z,13.47
2018-11-20T02:04:42.532Z,14.20
2018-11-20T02:13:19.818Z,14.33
2018-11-20T02:22:00.572Z,14.20
2018-11-20T02:30:37.646Z,13.30
2018-11-20T02:39:27.571Z,14.40
2018-11-20T02:48:17.434Z,14.43
2018-11-20T02:57:13.259Z,14.63
2018-11-20T03:05:52.906Z,13.83
2018-11-20T03:14:21.479Z,13.97
2018-11-20T03:22:49.863Z,13.00
2018-11-20T03:31:36.439Z,13.90
2018-11-20T03:40:32.282Z,14.00
2018-11-20T03:49:11.737Z,14.73
2018-11-20T03:57:58.571Z,13.90
2018-11-20T04:06:39.343Z,14.23
2018-11-20T04:15:18.810Z,14.17
2018-11-20T04:24:10.486Z,14.23
2018-11-20T04:33:00.252Z,14.57
2018-11-20T04:41:32.716Z,13.93
2018-11-20T04:49:59.364Z,13.60
2018-11-20T04:58:39.122Z,14.17
2018-11-20T05:07:18.852Z,14.37
2018-11-20T05:16:02.609Z,14.40
2018-11-20T05:25:01.852Z,13.23
2018-11-20T05:33:41.256Z,14.27
2018-11-20T05:42:18.423Z,13.40
2018-11-20T05:51:02.367Z,13.83
2018-11-20T05:59:58.282Z,13.27
2018-11-20T06:08:38.161Z,13.43
2018-11-20T06:17:14.537Z,12.90
2018-11-20T06:26:04.484Z,12.70
2018-11-20T06:34:48.180Z,12.47
2018-11-20T06:43:44.180Z,12.77
2018-11-20T06:52:28.516Z,12.87
2018-11-20T07:00:58.291Z,13.10
2018-11-20T07:09:34.561Z,11.83
2018-11-20T07:18:25.306Z,12.83
2018-11-20T07:27:09.170Z,11.47
2018-11-20T07:35:44.171Z,11.77
2018-11-20T07:44:14.819Z,11.60
2018-11-20T07:52:54.250Z,14.13
2018-11-20T08:01:41.276Z,13.77
2018-11-20T08:10:27.872Z,14.00
2018-11-20T08:19:00.029Z,14.73
2018-11-20T08:27:39.457Z,15.23
2018-11-20T08:36:20.224Z,18.98
2018-11-20T08:45:00.987Z,15.67
2018-11-20T08:53:57.153Z,14.63
2018-11-20T09:02:46.990Z,14.47
2018-11-20T09:11:37.768Z,14.33
2018-11-20T09:20:24.684Z,14.70
2018-11-20T09:29:03.960Z,12.37
2018-11-20T09:37:57.152Z,11.00
2018-11-20T09:46:36.760Z,9.70
2018-11-20T09:55:16.983Z,10.00
2018-11-20T10:03:56.540Z,9.80
2018-11-20T10:12:49.601Z,9.83
2018-11-20T10:21:29.324Z,9.13
2018-11-20T10:38:54.661Z,9.50
2018-11-20T10:47:41.852Z,10.10
2018-11-20T10:56:21.284Z,11.40
2018-11-20T11:05:01.409Z,10.77
2018-11-20T11:13:40.964Z,10.37
2018-11-20T11:22:21.719Z,11.27
2018-11-20T11:31:08.494Z,9.90
2018-11-20T11:39:52.030Z,8.83
2018-11-20T11:48:31.840Z,7.87
2018-11-20T11:57:12.617Z,8.33
2018-11-20T12:05:56.147Z,8.37
2018-11-20T12:14:42.739Z,8.20
2018-11-20T12:23:26.657Z,8.40
2018-11-20T12:32:16.273Z,7.67
2018-11-20T12:40:57.066Z,7.80
2018-11-20T12:49:36.480Z,8.23
2018-11-20T12:58:23.602Z,7.60
2018-11-20T13:07:05.164Z,8.10
2018-11-20T13:15:47.102Z,7.63
2018-11-20T13:24:21.197Z,7.80
2018-11-20T13:33:17.831Z,8.90
2018-11-20T13:41:55.116Z,8.23
2018-11-20T13:50:41.990Z,7.40
2018-11-20T13:59:21.564Z,7.73
2018-11-20T14:08:01.291Z,8.53
2018-11-20T14:16:48.530Z,8.00
2018-11-20T14:25:32.314Z,8.10
2018-11-20T14:34:11.915Z,8.60
2018-11-20T14:42:52.679Z,8.83
2018-11-20T14:51:48.846Z,8.40
2018-11-20T15:00:28.305Z,7.97
2018-11-20T15:09:18.266Z,9.07
2018-11-20T15:17:59.032Z,9.37
2018-11-20T15:26:52.136Z,10.07
2018-11-20T15:35:42.088Z,9.30
2018-11-20T15:44:21.530Z,8.90
2018-11-20T15:53:02.383Z,10.17
2018-11-20T16:01:49.232Z,11.30
2018-11-20T16:10:33.216Z,11.78
2018-11-20T16:19:16.770Z,9.63
2018-11-20T16:27:56.388Z,11.87
2018-11-20T16:36:36.033Z,14.60
2018-11-20T16:45:29.144Z,16.50
2018-11-20T16:54:08.665Z,16.60
2018-11-20T17:02:52.673Z,17.67
2018-11-20T17:11:32.416Z,16.57
2018-11-20T17:20:25.589Z,16.83
2018-11-20T17:29:05.539Z,16.90
2018-11-20T17:37:49.387Z,19.43
2018-11-20T17:46:36.132Z,17.47
2018-11-20T17:55:15.610Z,17.43
2018-11-20T18:04:05.747Z,16.13
2018-11-20T18:12:55.570Z,16.57
2018-11-20T18:21:31.161Z,16.20
2018-11-20T18:30:11.930Z,15.90
2018-11-20T18:38:51.829Z,16.87
2018-11-20T18:47:43.922Z,19.30
2018-11-20T18:56:29.047Z,21.90
2018-11-20T19:05:22.157Z,21.37
2018-11-20T19:13:58.978Z,17.67
2018-11-20T19:22:29.003Z,18.23
2018-11-20T19:31:15.825Z,19.37
2018-11-20T19:40:05.463Z,16.50
2018-11-20T19:48:39.955Z,17.00
2018-11-20T19:57:17.782Z,21.30
2018-11-20T20:06:01.592Z,22.00
2018-11-20T20:14:41.067Z,23.40
2018-11-20T20:23:34.108Z,22.33
2018-11-20T20:32:10.351Z,22.97
2018-11-20T20:41:03.741Z,23.70
2018-11-20T20:49:47.704Z,25.23
2018-11-20T20:58:15.239Z,24.13
2018-11-20T21:07:11.493Z,23.20
2018-11-20T21:15:58.452Z,21.27
2018-11-20T21:24:39.217Z,19.80
2018-11-20T21:33:18.639Z,19.73
2018-11-20T21:41:59.401Z,19.90
2018-11-20T21:50:40.169Z,23.27
2018-11-20T21:59:19.607Z,22.57
2018-11-20T22:07:59.492Z,20.03
2018-11-20T22:16:39.182Z,20.10
2018-11-20T22:25:13.485Z,25.93
2018-11-20T22:33:54.315Z,24.80
2018-11-20T22:42:41.334Z,24.37
2018-11-20T22:51:21.351Z,24.47
2018-11-20T23:00:02.112Z,22.57
2018-11-20T23:08:23.774Z,21.40
2018-11-20T23:16:45.319Z,22.30
2018-11-20T23:25:06.510Z,23.07
2018-11-20T23:33:27.680Z,22.57
2018-11-20T23:41:48.857Z,21.27
2018-11-20T23:50:12.337Z,21.67
2018-11-20T23:58:33.500Z,19.87
